sensor_id;sensor_type;location;lat;lon;timestamp;pressure;altitude;pressure_sealevel;temperature;humidity
7075;BME280;3578;51.568;6.932;2023-05-20T00:00:12;54117.97;;;-144.14;67.69
7075;BME280;3578;51.568;6.932;2023-05-20T00:02:39;54129.97;;;-144.14;67.35
7075;BME280;3578;51.568;6.932;2023-05-20T00:05:07;54132.00;;;-144.14;67.10
7075;BME280;3578;51.568;6.932;2023-05-20T00:07:34;54079.88;;;-144.14;69.46
7075;BME280;3578;51.568;6.932;2023-05-20T00:10:01;54087.88;;;-144.14;73.30
7075;BME280;3578;51.568;6.932;2023-05-20T00:12:29;54091.91;;;-144.14;75.82
7075;BME280;3578;51.568;6.932;2023-05-20T00:14:56;54061.81;;;-144.14;73.74
7075;BME280;3578;51.568;6.932;2023-05-20T00:17:23;54039.78;;;-144.14;76.98
7075;BME280;3578;51.568;6.932;2023-05-20T00:19:53;54047.78;;;-144.14;77.70
7075;BME280;3578;51.568;6.932;2023-05-20T00:22:20;54009.72;;;-144.14;79.73
7075;BME280;3578;51.568;6.932;2023-05-20T00:24:47;54031.75;;;-144.14;75.90
7075;BME280;3578;51.568;6.932;2023-05-20T00:27:14;54029.75;;;-144.14;77.32
7075;BME280;3578;51.568;6.932;2023-05-20T00:29:43;54067.84;;;-144.14;78.71
7075;BME280;3578;51.568;6.932;2023-05-20T00:32:09;54003.69;;;-144.14;79.69
7075;BME280;3578;51.568;6.932;2023-05-20T00:34:36;54019.72;;;-144.14;78.07
7075;BME280;3578;51.568;6.932;2023-05-20T00:37:04;54019.72;;;-144.14;76.37
7075;BME280;3578;51.568;6.932;2023-05-20T00:39:31;54071.84;;;-144.14;76.41
7075;BME280;3578;51.568;6.932;2023-05-20T00:41:58;54063.84;;;-144.14;77.60
7075;BME280;3578;51.568;6.932;2023-05-20T00:44:27;54037.78;;;-144.14;77.94
7075;BME280;3578;51.568;6.932;2023-05-20T00:46:56;54013.72;;;-144.14;78.37
7075;BME280;3578;51.568;6.932;2023-05-20T00:49:23;54057.81;;;-144.14;79.37
7075;BME280;3578;51.568;6.932;2023-05-20T00:51:50;54035.75;;;-144.14;79.66
7075;BME280;3578;51.568;6.932;2023-05-20T00:54:17;53991.66;;;-144.14;79.41
7075;BME280;3578;51.568;6.932;2023-05-20T00:56:44;54021.72;;;-144.14;79.83
7075;BME280;3578;51.568;6.932;2023-05-20T00:59:12;54033.75;;;-144.14;80.33
7075;BME280;3578;51.568;6.932;2023-05-20T01:01:39;53993.66;;;-144.14;81.50
7075;BME280;3578;51.568;6.932;2023-05-20T01:04:09;54011.72;;;-144.14;82.58
7075;BME280;3578;51.568;6.932;2023-05-20T01:06:36;53997.69;;;-144.14;82.88
7075;BME280;3578;51.568;6.932;2023-05-20T01:09:03;53995.69;;;-144.14;82.66
7075;BME280;3578;51.568;6.932;2023-05-20T01:11:36;53961.59;;;-144.14;81.86
7075;BME280;3578;51.568;6.932;2023-05-20T01:14:07;53991.66;;;-144.14;79.99
7075;BME280;3578;51.568;6.932;2023-05-20T01:16:35;53989.66;;;-144.14;80.71
7075;BME280;3578;51.568;6.932;2023-05-20T01:19:15;53993.66;;;-144.14;81.21
7075;BME280;3578;51.568;6.932;2023-05-20T01:21:47;54003.69;;;-144.14;80.48
7075;BME280;3578;51.568;6.932;2023-05-20T01:24:16;54047.78;;;-144.14;80.79
7075;BME280;3578;51.568;6.932;2023-05-20T01:26:43;54067.84;;;-144.14;81.32
7075;BME280;3578;51.568;6.932;2023-05-20T01:29:13;54021.72;;;-144.14;80.58
7075;BME280;3578;51.568;6.932;2023-05-20T01:31:43;54081.88;;;-144.14;81.40
7075;BME280;3578;51.568;6.932;2023-05-20T01:34:12;54013.72;;;-144.14;81.73
7075;BME280;3578;51.568;6.932;2023-05-20T01:36:39;54037.78;;;-144.14;81.90
7075;BME280;3578;51.568;6.932;2023-05-20T01:39:07;54015.72;;;-144.14;82.29
7075;BME280;3578;51.568;6.932;2023-05-20T01:41:36;54035.75;;;-144.14;81.01
7075;BME280;3578;51.568;6.932;2023-05-20T01:44:04;54009.72;;;-144.14;80.59
7075;BME280;3578;51.568;6.932;2023-05-20T01:46:32;54031.75;;;-144.14;81.13
7075;BME280;3578;51.568;6.932;2023-05-20T01:48:59;54021.72;;;-144.14;81.12
7075;BME280;3578;51.568;6.932;2023-05-20T01:51:26;54003.69;;;-144.14;80.64
7075;BME280;3578;51.568;6.932;2023-05-20T01:53:54;54017.72;;;-144.14;81.03
7075;BME280;3578;51.568;6.932;2023-05-20T01:56:21;54033.75;;;-144.14;81.08
7075;BME280;3578;51.568;6.932;2023-05-20T01:58:50;54023.75;;;-144.14;81.96
7075;BME280;3578;51.568;6.932;2023-05-20T02:01:17;53973.63;;;-144.14;83.22
7075;BME280;3578;51.568;6.932;2023-05-20T02:03:43;53955.59;;;-144.14;84.29
7075;BME280;3578;51.568;6.932;2023-05-20T02:06:10;54015.72;;;-144.14;82.75
7075;BME280;3578;51.568;6.932;2023-05-20T02:08:37;53993.66;;;-144.14;81.23
7075;BME280;3578;51.568;6.932;2023-05-20T02:11:05;54009.72;;;-144.14;79.96
7075;BME280;3578;51.568;6.932;2023-05-20T02:13:32;54011.72;;;-144.14;81.12
7075;BME280;3578;51.568;6.932;2023-05-20T02:16:00;53971.63;;;-144.14;81.90
7075;BME280;3578;51.568;6.932;2023-05-20T02:18:27;54031.75;;;-144.14;82.03
7075;BME280;3578;51.568;6.932;2023-05-20T02:20:54;54003.69;;;-144.14;82.22
7075;BME280;3578;51.568;6.932;2023-05-20T02:23:21;53997.69;;;-144.14;81.63
7075;BME280;3578;51.568;6.932;2023-05-20T02:25:48;53985.66;;;-144.14;80.93
7075;BME280;3578;51.568;6.932;2023-05-20T02:28:15;53977.63;;;-144.14;82.14
7075;BME280;3578;51.568;6.932;2023-05-20T02:30:42;53999.69;;;-144.14;82.58
7075;BME280;3578;51.568;6.932;2023-05-20T02:33:10;53933.53;;;-144.14;83.15
7075;BME280;3578;51.568;6.932;2023-05-20T02:35:38;53951.56;;;-144.14;83.76
7075;BME280;3578;51.568;6.932;2023-05-20T02:38:05;53935.53;;;-144.14;83.80
7075;BME280;3578;51.568;6.932;2023-05-20T02:40:32;53957.59;;;-144.14;84.33
7075;BME280;3578;51.568;6.932;2023-05-20T02:42:59;53921.50;;;-144.14;85.37
7075;BME280;3578;51.568;6.932;2023-05-20T02:45:27;53937.53;;;-144.14;85.72
7075;BME280;3578;51.568;6.932;2023-05-20T02:47:54;53907.47;;;-144.14;86.34
7075;BME280;3578;51.568;6.932;2023-05-20T02:50:22;53903.47;;;-144.14;86.72
7075;BME280;3578;51.568;6.932;2023-05-20T02:52:49;53929.53;;;-144.14;86.70
7075;BME280;3578;51.568;6.932;2023-05-20T02:55:16;53901.47;;;-144.14;86.52
7075;BME280;3578;51.568;6.932;2023-05-20T02:57:43;53907.47;;;-144.14;87.12
7075;BME280;3578;51.568;6.932;2023-05-20T03:00:11;53891.44;;;-144.14;87.54
7075;BME280;3578;51.568;6.932;2023-05-20T03:02:39;53907.47;;;-144.14;87.75
7075;BME280;3578;51.568;6.932;2023-05-20T03:05:06;53923.50;;;-144.14;88.13
7075;BME280;3578;51.568;6.932;2023-05-20T03:07:35;53899.47;;;-144.14;88.40
7075;BME280;3578;51.568;6.932;2023-05-20T03:10:03;53883.44;;;-144.14;88.47
7075;BME280;3578;51.568;6.932;2023-05-20T03:12:31;53893.44;;;-144.14;88.65
7075;BME280;3578;51.568;6.932;2023-05-20T03:14:58;53883.44;;;-144.14;88.68
7075;BME280;3578;51.568;6.932;2023-05-20T03:17:25;53903.47;;;-144.14;89.06
7075;BME280;3578;51.568;6.932;2023-05-20T03:19:52;53849.34;;;-144.14;89.25
7075;BME280;3578;51.568;6.932;2023-05-20T03:22:19;53859.38;;;-144.14;89.55
7075;BME280;3578;51.568;6.932;2023-05-20T03:24:47;53907.47;;;-144.14;89.64
7075;BME280;3578;51.568;6.932;2023-05-20T03:27:14;53843.34;;;-144.14;88.71
7075;BME280;3578;51.568;6.932;2023-05-20T03:29:41;53883.44;;;-144.14;88.69
7075;BME280;3578;51.568;6.932;2023-05-20T03:32:08;53895.44;;;-144.14;89.03
7075;BME280;3578;51.568;6.932;2023-05-20T03:34:35;53899.47;;;-144.14;88.58
7075;BME280;3578;51.568;6.932;2023-05-20T03:37:02;53873.41;;;-144.14;88.94
7075;BME280;3578;51.568;6.932;2023-05-20T03:39:29;53859.38;;;-144.14;89.36
7075;BME280;3578;51.568;6.932;2023-05-20T03:41:58;53865.38;;;-144.14;89.96
7075;BME280;3578;51.568;6.932;2023-05-20T03:44:25;53883.44;;;-144.14;89.56
7075;BME280;3578;51.568;6.932;2023-05-20T03:46:51;53855.38;;;-144.14;88.74
7075;BME280;3578;51.568;6.932;2023-05-20T03:49:18;53909.47;;;-144.14;88.21
7075;BME280;3578;51.568;6.932;2023-05-20T03:51:45;53893.44;;;-144.14;87.10
7075;BME280;3578;51.568;6.932;2023-05-20T03:54:12;53909.47;;;-144.14;86.80
7075;BME280;3578;51.568;6.932;2023-05-20T03:56:41;53945.56;;;-144.14;85.17
7075;BME280;3578;51.568;6.932;2023-05-20T03:59:09;53975.63;;;-144.14;83.29
7075;BME280;3578;51.568;6.932;2023-05-20T04:01:37;53953.59;;;-144.14;83.24
7075;BME280;3578;51.568;6.932;2023-05-20T04:04:04;53985.66;;;-144.14;81.22
7075;BME280;3578;51.568;6.932;2023-05-20T04:06:32;54023.75;;;-144.14;81.87
7075;BME280;3578;51.568;6.932;2023-05-20T04:08:58;54019.72;;;-144.14;81.74
7075;BME280;3578;51.568;6.932;2023-05-20T04:11:25;54035.75;;;-144.14;80.47
7075;BME280;3578;51.568;6.932;2023-05-20T04:13:52;54047.78;;;-144.14;78.10
7075;BME280;3578;51.568;6.932;2023-05-20T04:16:21;54085.88;;;-144.14;78.52
7075;BME280;3578;51.568;6.932;2023-05-20T04:18:48;54075.84;;;-144.14;78.73
7075;BME280;3578;51.568;6.932;2023-05-20T04:21:17;54049.81;;;-144.14;79.60
7075;BME280;3578;51.568;6.932;2023-05-20T04:23:44;54051.81;;;-144.14;79.96
7075;BME280;3578;51.568;6.932;2023-05-20T04:26:11;54079.88;;;-144.14;79.01
7075;BME280;3578;51.568;6.932;2023-05-20T04:28:39;54027.75;;;-144.14;78.11
7075;BME280;3578;51.568;6.932;2023-05-20T04:31:06;54089.88;;;-144.14;79.64
7075;BME280;3578;51.568;6.932;2023-05-20T04:33:36;54075.84;;;-144.14;80.93
7075;BME280;3578;51.568;6.932;2023-05-20T04:36:08;54049.81;;;-144.14;82.13
7075;BME280;3578;51.568;6.932;2023-05-20T04:38:36;54059.81;;;-144.14;81.90
7075;BME280;3578;51.568;6.932;2023-05-20T04:41:04;54035.75;;;-144.14;82.83
7075;BME280;3578;51.568;6.932;2023-05-20T04:43:31;54035.75;;;-144.14;84.33
7075;BME280;3578;51.568;6.932;2023-05-20T04:45:58;54059.81;;;-144.14;83.43
7075;BME280;3578;51.568;6.932;2023-05-20T04:48:30;54053.81;;;-144.14;83.03
7075;BME280;3578;51.568;6.932;2023-05-20T04:50:59;54051.81;;;-144.14;83.48
7075;BME280;3578;51.568;6.932;2023-05-20T04:53:26;54051.81;;;-144.14;83.89
7075;BME280;3578;51.568;6.932;2023-05-20T04:55:55;54063.84;;;-144.14;84.20
7075;BME280;3578;51.568;6.932;2023-05-20T04:58:22;54077.88;;;-144.14;84.79
7075;BME280;3578;51.568;6.932;2023-05-20T05:00:51;54063.84;;;-144.14;84.08
7075;BME280;3578;51.568;6.932;2023-05-20T05:03:18;54099.91;;;-144.14;84.42
7075;BME280;3578;51.568;6.932;2023-05-20T05:05:45;54057.81;;;-144.14;84.83
7075;BME280;3578;51.568;6.932;2023-05-20T05:08:13;54043.78;;;-144.14;82.92
7075;BME280;3578;51.568;6.932;2023-05-20T05:10:41;54103.91;;;-144.14;80.93
7075;BME280;3578;51.568;6.932;2023-05-20T05:13:08;54117.97;;;-144.14;81.42
7075;BME280;3578;51.568;6.932;2023-05-20T05:15:35;54095.91;;;-144.14;82.63
7075;BME280;3578;51.568;6.932;2023-05-20T05:18:02;54101.91;;;-144.14;85.06
7075;BME280;3578;51.568;6.932;2023-05-20T05:20:30;54069.84;;;-144.14;85.24
7075;BME280;3578;51.568;6.932;2023-05-20T05:22:56;54083.88;;;-144.14;85.80
7075;BME280;3578;51.568;6.932;2023-05-20T05:25:25;54111.94;;;-144.14;85.76
7075;BME280;3578;51.568;6.932;2023-05-20T05:27:52;54109.94;;;-144.14;85.69
7075;BME280;3578;51.568;6.932;2023-05-20T05:30:20;54093.91;;;-144.14;85.64
7075;BME280;3578;51.568;6.932;2023-05-20T05:32:47;54097.91;;;-144.14;86.33
7075;BME280;3578;51.568;6.932;2023-05-20T05:35:14;54067.84;;;-144.14;86.37
7075;BME280;3578;51.568;6.932;2023-05-20T05:37:41;54113.94;;;-144.14;86.13
7075;BME280;3578;51.568;6.932;2023-05-20T05:40:09;54109.94;;;-144.14;85.11
7075;BME280;3578;51.568;6.932;2023-05-20T05:42:38;54134.00;;;-144.14;84.61
7075;BME280;3578;51.568;6.932;2023-05-20T05:45:06;54150.03;;;-144.14;84.51
7075;BME280;3578;51.568;6.932;2023-05-20T05:47:33;54156.03;;;-144.14;85.69
7075;BME280;3578;51.568;6.932;2023-05-20T05:50:01;54117.97;;;-144.14;85.90
7075;BME280;3578;51.568;6.932;2023-05-20T05:52:27;54172.09;;;-144.14;84.56
7075;BME280;3578;51.568;6.932;2023-05-20T05:54:54;54246.25;;;-144.14;82.81
7075;BME280;3578;51.568;6.932;2023-05-20T05:57:21;54194.13;;;-144.14;82.22
7075;BME280;3578;51.568;6.932;2023-05-20T05:59:50;54212.19;;;-144.14;82.15
7075;BME280;3578;51.568;6.932;2023-05-20T06:02:17;54268.31;;;-144.14;80.11
7075;BME280;3578;51.568;6.932;2023-05-20T06:04:43;54340.47;;;-144.14;79.07
7075;BME280;3578;51.568;6.932;2023-05-20T06:07:10;54362.53;;;-144.14;75.07
7075;BME280;3578;51.568;6.932;2023-05-20T06:09:38;54432.69;;;-144.14;74.73
7075;BME280;3578;51.568;6.932;2023-05-20T06:12:05;54400.63;;;-144.14;75.41
7075;BME280;3578;51.568;6.932;2023-05-20T06:14:32;54408.63;;;-144.14;77.57
7075;BME280;3578;51.568;6.932;2023-05-20T06:17:01;54418.66;;;-144.14;78.61
7075;BME280;3578;51.568;6.932;2023-05-20T06:19:29;54627.16;;;-144.14;74.97
7075;BME280;3578;51.568;6.932;2023-05-20T06:21:56;54641.19;;;-144.14;71.10
7075;BME280;3578;51.568;6.932;2023-05-20T06:24:23;54581.06;;;-144.14;68.32
7075;BME280;3578;51.568;6.932;2023-05-20T06:26:50;54538.94;;;-144.14;73.01
7075;BME280;3578;51.568;6.932;2023-05-20T06:29:17;54548.97;;;-144.14;70.62
7075;BME280;3578;51.568;6.932;2023-05-20T06:31:44;54516.91;;;-144.14;68.97
7075;BME280;3578;51.568;6.932;2023-05-20T06:34:12;54557.00;;;-144.14;68.04
7075;BME280;3578;51.568;6.932;2023-05-20T06:36:39;54615.13;;;-144.14;69.34
7075;BME280;3578;51.568;6.932;2023-05-20T06:39:06;54633.19;;;-144.14;67.23
7075;BME280;3578;51.568;6.932;2023-05-20T06:41:37;54693.31;;;-144.14;64.39
7075;BME280;3578;51.568;6.932;2023-05-20T06:44:05;54787.56;;;-144.14;58.65
7075;BME280;3578;51.568;6.932;2023-05-20T06:46:32;55076.28;;;-144.14;54.77
7075;BME280;3578;51.568;6.932;2023-05-20T06:48:59;55363.03;;;-144.14;49.78
7075;BME280;3578;51.568;6.932;2023-05-20T06:51:28;55403.16;;;-144.14;48.87
7075;BME280;3578;51.568;6.932;2023-05-20T06:53:55;55314.91;;;-144.14;47.49
7075;BME280;3578;51.568;6.932;2023-05-20T06:56:22;55439.25;;;-144.14;46.26
7075;BME280;3578;51.568;6.932;2023-05-20T06:58:49;55571.59;;;-144.14;45.75
7075;BME280;3578;51.568;6.932;2023-05-20T07:01:16;55595.69;;;-144.14;44.24
7075;BME280;3578;51.568;6.932;2023-05-20T07:03:43;55607.72;;;-144.14;44.55
7075;BME280;3578;51.568;6.932;2023-05-20T07:06:10;55563.59;;;-144.14;44.51
7075;BME280;3578;51.568;6.932;2023-05-20T07:08:38;55551.56;;;-144.14;45.04
7075;BME280;3578;51.568;6.932;2023-05-20T07:11:05;55651.81;;;-144.14;44.07
7075;BME280;3578;51.568;6.932;2023-05-20T07:13:32;55710.00;;;-144.14;46.70
7075;BME280;3578;51.568;6.932;2023-05-20T07:16:00;55812.28;;;-144.14;44.70
7075;BME280;3578;51.568;6.932;2023-05-20T07:18:27;55806.25;;;-144.14;43.60
7075;BME280;3578;51.568;6.932;2023-05-20T07:20:54;55655.84;;;-144.14;43.07
7075;BME280;3578;51.568;6.932;2023-05-20T07:23:22;55519.47;;;-144.14;45.15
7075;BME280;3578;51.568;6.932;2023-05-20T07:25:52;55230.69;;;-144.14;46.75
7075;BME280;3578;51.568;6.932;2023-05-20T07:28:20;55154.50;;;-144.14;47.45
7075;BME280;3578;51.568;6.932;2023-05-20T07:30:47;55038.19;;;-144.14;48.47
7075;BME280;3578;51.568;6.932;2023-05-20T07:33:15;55074.28;;;-144.14;49.85
7075;BME280;3578;51.568;6.932;2023-05-20T07:35:43;54994.09;;;-144.14;51.30
7075;BME280;3578;51.568;6.932;2023-05-20T07:38:10;55074.28;;;-144.14;52.30
7075;BME280;3578;51.568;6.932;2023-05-20T07:40:38;55034.19;;;-144.14;50.91
7075;BME280;3578;51.568;6.932;2023-05-20T07:43:08;55092.34;;;-144.14;51.34
7075;BME280;3578;51.568;6.932;2023-05-20T07:45:35;55108.38;;;-144.14;52.69
7075;BME280;3578;51.568;6.932;2023-05-20T07:48:02;55132.44;;;-144.14;54.59
7075;BME280;3578;51.568;6.932;2023-05-20T07:50:30;55094.34;;;-144.14;52.17
7075;BME280;3578;51.568;6.932;2023-05-20T07:52:57;55084.31;;;-144.14;51.30
7075;BME280;3578;51.568;6.932;2023-05-20T07:55:23;55108.38;;;-144.14;52.76
7075;BME280;3578;51.568;6.932;2023-05-20T07:57:50;55094.34;;;-144.14;53.69
7075;BME280;3578;51.568;6.932;2023-05-20T08:00:19;55092.34;;;-144.14;52.47
7075;BME280;3578;51.568;6.932;2023-05-20T08:02:46;55070.28;;;-144.14;53.05
7075;BME280;3578;51.568;6.932;2023-05-20T08:05:13;55094.34;;;-144.14;53.95
7075;BME280;3578;51.568;6.932;2023-05-20T08:07:40;55122.41;;;-144.14;55.29
7075;BME280;3578;51.568;6.932;2023-05-20T08:10:08;55132.44;;;-144.14;53.79
7075;BME280;3578;51.568;6.932;2023-05-20T08:12:36;55078.28;;;-144.14;51.58
7075;BME280;3578;51.568;6.932;2023-05-20T08:15:03;55080.31;;;-144.14;54.99
7075;BME280;3578;51.568;6.932;2023-05-20T08:17:32;55086.31;;;-144.14;51.96
7075;BME280;3578;51.568;6.932;2023-05-20T08:19:59;55026.16;;;-144.14;52.14
7075;BME280;3578;51.568;6.932;2023-05-20T08:22:27;55044.22;;;-144.14;53.97
7075;BME280;3578;51.568;6.932;2023-05-20T08:24:53;55072.28;;;-144.14;55.00
7075;BME280;3578;51.568;6.932;2023-05-20T08:27:20;55096.34;;;-144.14;53.61
7075;BME280;3578;51.568;6.932;2023-05-20T08:29:47;55130.44;;;-144.14;53.72
7075;BME280;3578;51.568;6.932;2023-05-20T08:32:14;55086.31;;;-144.14;51.10
7075;BME280;3578;51.568;6.932;2023-05-20T08:34:43;55148.47;;;-144.14;51.42
7075;BME280;3578;51.568;6.932;2023-05-20T08:37:10;55128.44;;;-144.14;52.56
7075;BME280;3578;51.568;6.932;2023-05-20T08:39:36;55124.41;;;-144.14;51.07
7075;BME280;3578;51.568;6.932;2023-05-20T08:42:04;55098.34;;;-144.14;51.58
7075;BME280;3578;51.568;6.932;2023-05-20T08:44:33;55096.34;;;-144.14;51.49
7075;BME280;3578;51.568;6.932;2023-05-20T08:47:02;55106.38;;;-144.14;53.56
7075;BME280;3578;51.568;6.932;2023-05-20T08:49:31;55120.41;;;-144.14;54.61
7075;BME280;3578;51.568;6.932;2023-05-20T08:52:00;55156.50;;;-144.14;53.04
7075;BME280;3578;51.568;6.932;2023-05-20T08:54:42;55230.69;;;-144.14;53.23
7075;BME280;3578;51.568;6.932;2023-05-20T08:57:10;55288.84;;;-144.14;50.28
7075;BME280;3578;51.568;6.932;2023-05-20T08:59:41;55272.81;;;-144.14;50.96
7075;BME280;3578;51.568;6.932;2023-05-20T09:02:09;55347.00;;;-144.14;53.73
7075;BME280;3578;51.568;6.932;2023-05-20T09:04:36;55381.09;;;-144.14;51.76
7075;BME280;3578;51.568;6.932;2023-05-20T09:07:05;55381.09;;;-144.14;49.12
7075;BME280;3578;51.568;6.932;2023-05-20T09:09:33;55353.03;;;-144.14;50.21
7075;BME280;3578;51.568;6.932;2023-05-20T09:12:01;55351.00;;;-144.14;51.84
7075;BME280;3578;51.568;6.932;2023-05-20T09:14:29;55369.06;;;-144.14;50.88
7075;BME280;3578;51.568;6.932;2023-05-20T09:16:55;55423.22;;;-144.14;50.59
7075;BME280;3578;51.568;6.932;2023-05-20T09:19:23;55363.03;;;-144.14;49.49
7075;BME280;3578;51.568;6.932;2023-05-20T09:21:52;55421.19;;;-144.14;49.77
7075;BME280;3578;51.568;6.932;2023-05-20T09:24:22;55431.22;;;-144.14;48.87
7075;BME280;3578;51.568;6.932;2023-05-20T09:26:50;55477.34;;;-144.14;50.18
7075;BME280;3578;51.568;6.932;2023-05-20T09:29:17;55415.19;;;-144.14;50.03
7075;BME280;3578;51.568;6.932;2023-05-20T09:31:46;55455.28;;;-144.14;50.09
7075;BME280;3578;51.568;6.932;2023-05-20T09:34:13;55415.19;;;-144.14;48.69
7075;BME280;3578;51.568;6.932;2023-05-20T09:36:42;55373.06;;;-144.14;49.10
7075;BME280;3578;51.568;6.932;2023-05-20T09:39:15;55367.06;;;-144.14;49.20
7075;BME280;3578;51.568;6.932;2023-05-20T09:41:59;55397.13;;;-144.14;50.39
7075;BME280;3578;51.568;6.932;2023-05-20T09:44:28;55377.09;;;-144.14;48.96
7075;BME280;3578;51.568;6.932;2023-05-20T09:46:56;55407.16;;;-144.14;49.15
7075;BME280;3578;51.568;6.932;2023-05-20T09:49:24;55391.13;;;-144.14;49.60
7075;BME280;3578;51.568;6.932;2023-05-20T09:51:51;55359.03;;;-144.14;50.60
7075;BME280;3578;51.568;6.932;2023-05-20T09:54:19;55367.06;;;-144.14;49.06
7075;BME280;3578;51.568;6.932;2023-05-20T09:56:48;55365.06;;;-144.14;49.63
7075;BME280;3578;51.568;6.932;2023-05-20T09:59:16;55347.00;;;-144.14;49.03
7075;BME280;3578;51.568;6.932;2023-05-20T10:01:44;55351.00;;;-144.14;50.29
7075;BME280;3578;51.568;6.932;2023-05-20T10:04:12;55322.94;;;-144.14;51.34
7075;BME280;3578;51.568;6.932;2023-05-20T10:06:55;55318.94;;;-144.14;50.43
7075;BME280;3578;51.568;6.932;2023-05-20T10:09:46;55278.81;;;-144.14;51.14
7075;BME280;3578;51.568;6.932;2023-05-20T10:12:26;55318.94;;;-144.14;49.95
7075;BME280;3578;51.568;6.932;2023-05-20T10:15:06;55377.09;;;-144.14;50.10
7075;BME280;3578;51.568;6.932;2023-05-20T10:17:43;55328.94;;;-144.14;49.98
7075;BME280;3578;51.568;6.932;2023-05-20T10:20:12;55357.03;;;-144.14;49.35
7075;BME280;3578;51.568;6.932;2023-05-20T10:22:39;55316.91;;;-144.14;49.20
7075;BME280;3578;51.568;6.932;2023-05-20T10:25:23;55375.06;;;-144.14;51.76
7075;BME280;3578;51.568;6.932;2023-05-20T10:28:03;55373.06;;;-144.14;50.36
7075;BME280;3578;51.568;6.932;2023-05-20T10:30:32;55401.16;;;-144.14;52.45
7075;BME280;3578;51.568;6.932;2023-05-20T10:33:03;55457.28;;;-144.14;50.44
7075;BME280;3578;51.568;6.932;2023-05-20T10:35:31;55499.41;;;-144.14;49.08
7075;BME280;3578;51.568;6.932;2023-05-20T10:38:08;55555.56;;;-144.14;49.38
7075;BME280;3578;51.568;6.932;2023-05-20T10:40:36;55603.69;;;-144.14;48.19
7075;BME280;3578;51.568;6.932;2023-05-20T10:43:13;55559.56;;;-144.14;48.88
7075;BME280;3578;51.568;6.932;2023-05-20T10:45:48;55543.53;;;-144.14;48.26
7075;BME280;3578;51.568;6.932;2023-05-20T10:48:26;55591.66;;;-144.14;49.98
7075;BME280;3578;51.568;6.932;2023-05-20T10:50:55;55609.72;;;-144.14;48.85
7075;BME280;3578;51.568;6.932;2023-05-20T10:53:24;55671.88;;;-144.14;48.83
7075;BME280;3578;51.568;6.932;2023-05-20T10:55:53;55697.94;;;-144.14;48.64
7075;BME280;3578;51.568;6.932;2023-05-20T10:58:23;55748.09;;;-144.14;49.23
7075;BME280;3578;51.568;6.932;2023-05-20T11:00:53;55756.13;;;-144.14;48.16
7075;BME280;3578;51.568;6.932;2023-05-20T11:03:21;55794.22;;;-144.14;48.60
7075;BME280;3578;51.568;6.932;2023-05-20T11:05:49;55776.16;;;-144.14;47.18
7075;BME280;3578;51.568;6.932;2023-05-20T11:08:16;55726.03;;;-144.14;47.47
7075;BME280;3578;51.568;6.932;2023-05-20T11:10:43;55774.16;;;-144.14;49.83
7075;BME280;3578;51.568;6.932;2023-05-20T11:13:12;55774.16;;;-144.14;49.20
7075;BME280;3578;51.568;6.932;2023-05-20T11:15:41;55758.13;;;-144.14;46.73
7075;BME280;3578;51.568;6.932;2023-05-20T11:18:10;55778.19;;;-144.14;48.12
7075;BME280;3578;51.568;6.932;2023-05-20T11:20:40;55768.16;;;-144.14;49.10
7075;BME280;3578;51.568;6.932;2023-05-20T11:23:12;55784.19;;;-144.14;49.61
7075;BME280;3578;51.568;6.932;2023-05-20T11:25:39;55856.41;;;-144.14;49.35
7075;BME280;3578;51.568;6.932;2023-05-20T11:28:11;55788.19;;;-144.14;47.71
7075;BME280;3578;51.568;6.932;2023-05-20T11:30:38;55806.25;;;-144.14;47.69
7075;BME280;3578;51.568;6.932;2023-05-20T11:33:11;55896.50;;;-144.14;49.35
7075;BME280;3578;51.568;6.932;2023-05-20T11:35:44;55900.53;;;-144.14;49.00
7075;BME280;3578;51.568;6.932;2023-05-20T11:38:12;55968.72;;;-144.14;47.60
7075;BME280;3578;51.568;6.932;2023-05-20T11:40:43;55932.59;;;-144.14;47.77
7075;BME280;3578;51.568;6.932;2023-05-20T11:43:12;55930.59;;;-144.14;46.68
7075;BME280;3578;51.568;6.932;2023-05-20T11:45:40;55888.50;;;-144.14;47.14
7075;BME280;3578;51.568;6.932;2023-05-20T11:48:10;55880.47;;;-144.14;47.03
7075;BME280;3578;51.568;6.932;2023-05-20T11:50:40;55956.69;;;-144.14;47.74
7075;BME280;3578;51.568;6.932;2023-05-20T11:53:09;56002.81;;;-144.14;47.42
7075;BME280;3578;51.568;6.932;2023-05-20T11:55:45;55976.72;;;-144.14;46.61
7075;BME280;3578;51.568;6.932;2023-05-20T11:58:15;56028.88;;;-144.14;47.44
7075;BME280;3578;51.568;6.932;2023-05-20T12:00:42;55982.75;;;-144.14;47.19
7075;BME280;3578;51.568;6.932;2023-05-20T12:03:11;56050.94;;;-144.14;47.72
7075;BME280;3578;51.568;6.932;2023-05-20T12:05:37;56095.06;;;-144.14;46.61
7075;BME280;3578;51.568;6.932;2023-05-20T12:08:05;56143.22;;;-144.14;47.74
7075;BME280;3578;51.568;6.932;2023-05-20T12:10:33;56143.22;;;-144.14;47.38
7075;BME280;3578;51.568;6.932;2023-05-20T12:13:00;56153.25;;;-144.14;45.88
7075;BME280;3578;51.568;6.932;2023-05-20T12:15:27;56129.16;;;-144.14;45.68
7075;BME280;3578;51.568;6.932;2023-05-20T12:17:55;56131.19;;;-144.14;47.05
7075;BME280;3578;51.568;6.932;2023-05-20T12:20:24;56239.50;;;-144.14;45.35
7075;BME280;3578;51.568;6.932;2023-05-20T12:22:51;56267.56;;;-144.14;45.84
7075;BME280;3578;51.568;6.932;2023-05-20T12:25:19;56307.69;;;-144.14;46.07
7075;BME280;3578;51.568;6.932;2023-05-20T12:27:47;56323.75;;;-144.14;45.02
7075;BME280;3578;51.568;6.932;2023-05-20T12:30:17;56315.72;;;-144.14;43.91
7075;BME280;3578;51.568;6.932;2023-05-20T12:32:45;56345.81;;;-144.14;46.89
7075;BME280;3578;51.568;6.932;2023-05-20T12:35:12;56281.63;;;-144.14;44.52
7075;BME280;3578;51.568;6.932;2023-05-20T12:37:42;56281.63;;;-144.14;44.86
7075;BME280;3578;51.568;6.932;2023-05-20T12:40:11;56245.50;;;-144.14;43.92
7075;BME280;3578;51.568;6.932;2023-05-20T12:42:40;56267.56;;;-144.14;44.72
7075;BME280;3578;51.568;6.932;2023-05-20T12:45:08;56257.53;;;-144.14;44.72
7075;BME280;3578;51.568;6.932;2023-05-20T12:47:35;56355.84;;;-144.14;45.23
7075;BME280;3578;51.568;6.932;2023-05-20T12:50:03;56249.53;;;-144.14;43.51
7075;BME280;3578;51.568;6.932;2023-05-20T12:52:30;56241.50;;;-144.14;43.31
7075;BME280;3578;51.568;6.932;2023-05-20T12:54:58;56221.44;;;-144.14;43.22
7075;BME280;3578;51.568;6.932;2023-05-20T12:57:26;56209.41;;;-144.14;43.04
7075;BME280;3578;51.568;6.932;2023-05-20T12:59:53;56217.44;;;-144.14;43.39
7075;BME280;3578;51.568;6.932;2023-05-20T13:02:20;56267.56;;;-144.14;44.52
7075;BME280;3578;51.568;6.932;2023-05-20T13:04:46;56233.47;;;-144.14;43.18